createdAt,value
2023-04-15T00:03:09.578Z,12.70
2023-04-15T00:08:12.902Z,11.30
2023-04-15T00:13:15.522Z,15.40
2023-04-15T00:18:18.228Z,13.70
2023-04-15T00:23:20.855Z,13.10
2023-04-15T00:28:23.443Z,12.00
2023-04-15T00:33:25.947Z,12.60
2023-04-15T00:38:28.664Z,11.30
2023-04-15T00:43:31.302Z,11.30
2023-04-15T00:48:33.854Z,11.70
2023-04-15T00:53:36.383Z,9.70
2023-04-15T00:58:38.948Z,14.00
2023-04-15T01:03:41.675Z,13.70
2023-04-15T01:08:45.499Z,16.30
2023-04-15T01:13:48.401Z,13.50
2023-04-15T01:18:52.130Z,13.20
2023-04-15T01:23:56.817Z,11.10
2023-04-15T01:28:59.628Z,12.60
2023-04-15T01:34:02.370Z,15.60
2023-04-15T01:39:05.662Z,10.90
2023-04-15T01:44:08.782Z,13.80
2023-04-15T01:49:11.681Z,10.90
2023-04-15T01:54:14.284Z,13.20
2023-04-15T01:59:16.970Z,14.70
2023-04-15T02:04:19.800Z,9.70
2023-04-15T02:09:22.422Z,12.00
2023-04-15T02:14:24.970Z,11.00
2023-04-15T02:19:27.450Z,11.30
2023-04-15T02:24:31.096Z,13.80
2023-04-15T02:29:33.633Z,11.20
2023-04-15T02:34:37.627Z,18.50
2023-04-15T02:39:40.153Z,15.20
2023-04-15T02:44:43.505Z,10.50
2023-04-15T02:49:46.031Z,8.90
2023-04-15T02:54:48.602Z,15.20
2023-04-15T02:59:51.157Z,11.50
2023-04-15T03:04:54.812Z,12.00
2023-04-15T03:09:57.897Z,10.10
2023-04-15T03:15:02.106Z,15.10
2023-04-15T03:20:06.296Z,10.10
2023-04-15T03:25:09.345Z,7.80
2023-04-15T03:30:12.386Z,13.20
2023-04-15T03:35:15.085Z,8.80
2023-04-15T03:40:17.683Z,12.20
2023-04-15T03:45:20.496Z,13.60
2023-04-15T03:50:23.089Z,11.90
2023-04-15T03:55:25.581Z,13.00
2023-04-15T04:00:28.133Z,9.70
2023-04-15T04:05:31.002Z,9.90
2023-04-15T04:10:33.552Z,9.10
2023-04-15T04:15:36.248Z,7.30
2023-04-15T04:20:38.766Z,8.00
2023-04-15T04:25:41.513Z,8.90
2023-04-15T04:30:44.120Z,9.20
2023-04-15T04:35:46.821Z,9.80
2023-04-15T04:40:49.383Z,10.40
2023-04-15T04:45:52.032Z,9.10
2023-04-15T04:50:54.932Z,9.00
2023-04-15T04:55:57.494Z,11.80
2023-04-15T05:01:00.232Z,10.20
2023-04-15T05:06:06.044Z,9.30
2023-04-15T05:16:11.681Z,10.80
2023-04-15T05:21:14.409Z,7.70
2023-04-15T05:26:17.670Z,9.60
2023-04-15T05:31:20.571Z,10.50
2023-04-15T05:36:23.201Z,10.70
2023-04-15T05:41:25.922Z,12.20
2023-04-15T05:46:28.503Z,11.40
2023-04-15T05:51:31.372Z,13.90
2023-04-15T05:56:33.865Z,10.10
2023-04-15T06:01:36.466Z,18.10
2023-04-15T06:06:39.002Z,12.00
2023-04-15T06:11:41.552Z,15.60
2023-04-15T06:16:44.157Z,12.60
2023-04-15T06:21:46.783Z,12.70
2023-04-15T06:26:49.306Z,10.20
2023-04-15T06:31:52.178Z,10.40
2023-04-15T06:36:54.861Z,11.70
2023-04-15T06:41:57.499Z,11.00
2023-04-15T06:47:00.020Z,11.70
2023-04-15T06:52:02.783Z,12.60
2023-04-15T06:57:06.090Z,13.90
2023-04-15T07:02:12.384Z,10.40
2023-04-15T07:07:15.462Z,10.50
2023-04-15T07:12:18.046Z,17.60
2023-04-15T07:17:21.554Z,12.60
2023-04-15T07:22:24.397Z,11.80
2023-04-15T07:27:27.240Z,10.60
2023-04-15T07:32:29.806Z,10.80
2023-04-15T07:37:32.473Z,10.60
2023-04-15T07:42:35.621Z,10.90
2023-04-15T07:47:38.259Z,10.40
2023-04-15T07:52:41.315Z,12.20
2023-04-15T07:57:43.829Z,10.90
2023-04-15T08:02:48.368Z,12.70
2023-04-15T08:07:51.693Z,12.20
2023-04-15T08:12:54.880Z,11.00
2023-04-15T08:17:57.468Z,11.60
2023-04-15T08:23:00.194Z,10.50
2023-04-15T08:28:07.441Z,8.90
2023-04-15T08:33:10.425Z,12.90
2023-04-15T08:38:12.987Z,13.30
2023-04-15T08:43:26.328Z,9.70
2023-04-15T08:48:32.544Z,11.50
2023-04-15T08:53:35.527Z,9.70
2023-04-15T08:58:38.243Z,11.00
2023-04-15T09:03:42.016Z,11.40
2023-04-15T09:08:44.876Z,9.90
2023-04-15T09:13:47.541Z,10.70
2023-04-15T09:18:50.078Z,9.70
2023-04-15T09:24:00.796Z,11.10
2023-04-15T09:29:06.645Z,11.10
2023-04-15T09:34:09.316Z,11.90
2023-04-15T09:39:11.891Z,9.80
2023-04-15T09:44:24.605Z,13.10
2023-04-15T09:49:27.416Z,12.60
2023-04-15T09:54:38.676Z,9.30
2023-04-15T09:59:41.395Z,12.40
2023-04-15T10:04:44.434Z,8.80
2023-04-15T10:09:49.118Z,9.70
2023-04-15T10:14:58.465Z,8.30
2023-04-15T10:20:05.450Z,9.80
2023-04-15T10:25:09.632Z,12.00
2023-04-15T10:30:12.570Z,9.30
2023-04-15T10:35:16.438Z,11.50
2023-04-15T10:40:33.458Z,9.80
2023-04-15T10:45:37.566Z,7.40
2023-04-15T10:50:40.193Z,22.60
2023-04-15T10:55:42.727Z,14.90
2023-04-15T11:00:52.981Z,12.00
2023-04-15T11:05:55.928Z,7.70
2023-04-15T11:10:58.533Z,11.70
2023-04-15T11:16:02.503Z,12.20
2023-04-15T11:21:07.349Z,10.10
2023-04-15T11:26:12.215Z,9.10
2023-04-15T11:31:18.204Z,10.10
2023-04-15T11:36:21.194Z,11.10
2023-04-15T11:41:24.246Z,15.50
2023-04-15T11:46:34.179Z,9.50
2023-04-15T11:51:37.032Z,11.00
2023-04-15T11:56:39.630Z,11.40
2023-04-15T12:01:44.032Z,7.10
2023-04-15T12:06:46.750Z,6.40
2023-04-15T12:11:51.430Z,7.20
2023-04-15T12:16:58.552Z,9.00
2023-04-15T12:22:06.590Z,7.90
2023-04-15T12:27:12.416Z,7.20
2023-04-15T12:37:23.565Z,5.20
2023-04-15T12:42:26.112Z,5.20
2023-04-15T12:47:28.711Z,5.20
2023-04-15T12:52:31.259Z,8.90
2023-04-15T12:57:33.810Z,6.80
2023-04-15T13:02:36.922Z,5.40
2023-04-15T13:07:39.697Z,5.50
2023-04-15T13:12:42.386Z,5.80
2023-04-15T13:17:44.959Z,6.80
2023-04-15T13:22:47.608Z,9.40
2023-04-15T13:27:50.172Z,6.20
2023-04-15T13:32:53.852Z,4.80
2023-04-15T13:37:56.448Z,4.80
2023-04-15T13:42:59.847Z,5.50
2023-04-15T13:48:02.467Z,4.00
2023-04-15T13:53:05.080Z,5.30
2023-04-15T13:58:08.819Z,4.60
2023-04-15T14:03:11.625Z,7.80
2023-04-15T14:08:14.557Z,5.90
2023-04-15T14:13:17.173Z,4.00
2023-04-15T14:18:19.918Z,4.30
2023-04-15T14:23:25.491Z,4.30
2023-04-15T14:28:28.012Z,5.70
2023-04-15T14:33:30.620Z,4.50
2023-04-15T14:38:38.544Z,4.40
2023-04-15T14:43:41.236Z,4.10
2023-04-15T14:48:43.892Z,3.90
2023-04-15T14:53:46.530Z,4.10
2023-04-15T14:58:49.373Z,5.20
2023-04-15T15:03:51.999Z,3.00
2023-04-15T15:08:54.574Z,6.70
2023-04-15T15:13:58.344Z,5.80
2023-04-15T15:19:00.980Z,3.00
2023-04-15T15:24:03.731Z,2.90
2023-04-15T15:29:06.499Z,3.60
2023-04-15T15:34:09.297Z,3.40
2023-04-15T15:39:11.999Z,3.20
2023-04-15T15:44:14.545Z,2.60
2023-04-15T15:49:17.064Z,5.20
2023-04-15T15:54:19.616Z,3.20
2023-04-15T15:59:22.125Z,3.70
2023-04-15T16:04:25.269Z,5.50
2023-04-15T16:09:27.941Z,3.50
2023-04-15T16:14:30.620Z,3.70
2023-04-15T16:19:33.433Z,4.00
2023-04-15T16:24:36.098Z,1.60
2023-04-15T16:29:38.839Z,2.70
2023-04-15T16:34:41.716Z,3.00
2023-04-15T16:39:44.804Z,2.20
2023-04-15T16:44:47.326Z,3.00
2023-04-15T16:49:49.879Z,2.10
2023-04-15T16:54:52.374Z,2.10
2023-04-15T16:59:54.936Z,2.70
2023-04-15T17:04:57.467Z,5.70
2023-04-15T17:10:00.173Z,3.10
2023-04-15T17:15:03.126Z,2.50
2023-04-15T17:20:06.153Z,5.20
2023-04-15T17:25:09.123Z,3.10
2023-04-15T17:30:11.985Z,2.70
2023-04-15T17:35:14.636Z,2.90
2023-04-15T17:40:17.328Z,3.10
2023-04-15T17:45:20.044Z,6.60
2023-04-15T17:50:22.581Z,3.50
2023-04-15T17:55:25.219Z,4.60
2023-04-15T18:00:27.953Z,3.30
2023-04-15T18:05:30.524Z,2.50
2023-04-15T18:10:33.994Z,3.10
2023-04-15T18:15:36.944Z,2.60
2023-04-15T18:20:39.475Z,5.00
2023-04-15T18:25:43.574Z,2.30
2023-04-15T18:30:46.549Z,2.30
2023-04-15T18:35:50.104Z,3.90
2023-04-15T18:40:53.356Z,2.40
2023-04-15T18:45:56.275Z,1.80
2023-04-15T18:50:59.526Z,2.20
2023-04-15T18:56:03.421Z,2.30
2023-04-15T19:01:06.572Z,1.70
2023-04-15T19:06:09.231Z,1.90
2023-04-15T19:11:12.044Z,1.70
2023-04-15T19:16:15.014Z,5.60
2023-04-15T19:21:17.993Z,4.90
2023-04-15T19:26:20.700Z,3.50
2023-04-15T19:31:23.310Z,2.90
2023-04-15T19:36:28.084Z,2.40
2023-04-15T19:41:30.866Z,2.10
2023-04-15T19:46:33.498Z,2.80
2023-04-15T19:51:36.392Z,2.70
2023-04-15T19:56:39.048Z,3.30
2023-04-15T20:01:41.650Z,2.90
2023-04-15T20:06:44.221Z,2.80
2023-04-15T20:12:48.079Z,3.40
2023-04-15T20:17:09.357Z,2.70
2023-04-15T20:22:11.934Z,4.00
2023-04-15T20:27:14.474Z,3.10
2023-04-15T20:32:17.900Z,4.20
2023-04-15T20:37:20.473Z,3.40
2023-04-15T20:42:23.000Z,3.70
2023-04-15T20:47:25.895Z,3.30
2023-04-15T20:52:28.517Z,2.40
2023-04-15T20:57:31.260Z,1.90
2023-04-15T21:02:33.925Z,2.40
2023-04-15T21:07:36.595Z,2.80
2023-04-15T21:12:40.818Z,4.70
2023-04-15T21:17:43.451Z,3.30
2023-04-15T21:22:46.073Z,4.60
2023-04-15T21:27:48.567Z,3.20
2023-04-15T21:32:51.219Z,3.50
2023-04-15T21:37:53.858Z,3.90
2023-04-15T21:42:56.459Z,3.30
2023-04-15T21:48:07.564Z,4.60
2023-04-15T21:53:11.109Z,2.60
2023-04-15T21:58:13.613Z,3.30
2023-04-15T22:03:16.655Z,4.00
2023-04-15T22:08:19.328Z,3.60
2023-04-15T22:13:21.904Z,4.00
2023-04-15T22:18:24.440Z,3.40
2023-04-15T22:23:26.975Z,4.10
2023-04-15T22:28:29.507Z,3.80
2023-04-15T22:33:32.094Z,2.90
2023-04-15T22:38:34.664Z,3.60
2023-04-15T22:43:37.202Z,3.40
2023-04-15T22:48:39.728Z,5.20
2023-04-15T22:53:42.261Z,3.30
2023-04-15T22:58:44.857Z,4.50
2023-04-15T23:03:57.163Z,3.10
2023-04-15T23:09:06.880Z,2.50
2023-04-15T23:14:09.508Z,3.30
2023-04-15T23:19:12.271Z,4.20
2023-04-15T23:24:15.072Z,4.60
2023-04-15T23:29:17.577Z,4.20
2023-04-15T23:34:20.118Z,4.50
2023-04-15T23:39:22.687Z,4.60
2023-04-15T23:44:25.251Z,3.40
2023-04-15T23:49:27.855Z,3.60
2023-04-15T23:54:30.404Z,4.40
2023-04-15T23:59:32.938Z,3.10
